sensor_id;sensor_type;location;lat;lon;timestamp;pressure;altitude;pressure_sealevel;temperature;humidity
15817;BME280;8009;50.070;8.232;2023-05-11T00:31:32;99744.94;;;14.11;70.19
15817;BME280;8009;50.070;8.232;2023-05-11T00:34:01;99737.63;;;14.31;69.41
15817;BME280;8009;50.070;8.232;2023-05-11T00:36:30;99727.34;;;14.15;70.68
15817;BME280;8009;50.070;8.232;2023-05-11T00:38:58;99732.50;;;14.18;70.62
15817;BME280;8009;50.070;8.232;2023-05-11T00:51:04;99730.69;;;13.80;72.53
15817;BME280;8009;50.070;8.232;2023-05-11T01:48:38;99732.22;;;13.34;72.65
15817;BME280;8009;50.070;8.232;2023-05-11T01:51:07;99722.84;;;13.07;74.16
15817;BME280;8009;50.070;8.232;2023-05-11T01:56:43;99727.69;;;12.94;71.25
15817;BME280;8009;50.070;8.232;2023-05-11T01:59:13;99728.91;;;12.80;71.23
15817;BME280;8009;50.070;8.232;2023-05-11T02:04:54;99736.53;;;12.65;71.28
15817;BME280;8009;50.070;8.232;2023-05-11T02:07:23;99733.47;;;12.80;71.82
15817;BME280;8009;50.070;8.232;2023-05-11T02:09:59;99729.53;;;12.93;70.69
15817;BME280;8009;50.070;8.232;2023-05-11T04:06:34;99749.91;;;12.06;77.09
15817;BME280;8009;50.070;8.232;2023-05-11T04:09:03;99745.06;;;11.77;77.37
15817;BME280;8009;50.070;8.232;2023-05-11T04:11:35;99746.47;;;11.71;77.89
15817;BME280;8009;50.070;8.232;2023-05-11T04:14:03;99741.63;;;11.75;77.98
15817;BME280;8009;50.070;8.232;2023-05-11T04:16:52;99746.00;;;12.40;75.43
15817;BME280;8009;50.070;8.232;2023-05-11T04:25:55;99756.19;;;11.63;77.97
15817;BME280;8009;50.070;8.232;2023-05-11T04:31:35;99759.63;;;11.65;77.20
15817;BME280;8009;50.070;8.232;2023-05-11T04:34:05;99758.84;;;11.74;77.05
15817;BME280;8009;50.070;8.232;2023-05-11T04:36:33;99761.66;;;11.40;78.29
15817;BME280;8009;50.070;8.232;2023-05-11T04:45:29;99759.59;;;11.87;76.65
15817;BME280;8009;50.070;8.232;2023-05-11T04:51:10;99758.03;;;12.06;76.51
15817;BME280;8009;50.070;8.232;2023-05-11T04:53:38;99765.41;;;12.04;76.30
15817;BME280;8009;50.070;8.232;2023-05-11T04:56:07;99762.00;;;11.90;76.45
15817;BME280;8009;50.070;8.232;2023-05-11T04:58:36;99759.13;;;12.45;75.46
15817;BME280;8009;50.070;8.232;2023-05-11T05:01:09;99765.66;;;12.42;75.23
15817;BME280;8009;50.070;8.232;2023-05-11T05:03:38;99769.09;;;12.24;75.91
15817;BME280;8009;50.070;8.232;2023-05-11T05:06:14;99775.97;;;12.49;75.16
15817;BME280;8009;50.070;8.232;2023-05-11T05:08:42;99768.69;;;12.49;74.86
15817;BME280;8009;50.070;8.232;2023-05-11T05:14:12;99783.78;;;12.21;75.67
15817;BME280;8009;50.070;8.232;2023-05-11T05:16:43;99780.84;;;12.34;75.91
15817;BME280;8009;50.070;8.232;2023-05-11T05:19:11;99787.84;;;12.15;77.01
15817;BME280;8009;50.070;8.232;2023-05-11T05:21:40;99791.63;;;12.45;76.79
15817;BME280;8009;50.070;8.232;2023-05-11T05:24:09;99786.81;;;12.79;74.74
15817;BME280;8009;50.070;8.232;2023-05-11T05:26:37;99783.78;;;12.73;75.64
15817;BME280;8009;50.070;8.232;2023-05-11T05:29:06;99789.16;;;12.93;74.49
15817;BME280;8009;50.070;8.232;2023-05-11T05:31:34;99791.28;;;13.30;73.47
15817;BME280;8009;50.070;8.232;2023-05-11T05:34:05;99782.63;;;13.36;73.27
15817;BME280;8009;50.070;8.232;2023-05-11T05:36:33;99789.00;;;13.26;73.67
15817;BME280;8009;50.070;8.232;2023-05-11T05:39:02;99786.81;;;13.20;72.84
15817;BME280;8009;50.070;8.232;2023-05-11T05:41:34;99791.63;;;13.16;72.97
15817;BME280;8009;50.070;8.232;2023-05-11T05:44:02;99786.53;;;13.13;73.49
15817;BME280;8009;50.070;8.232;2023-05-11T05:46:30;99788.28;;;13.24;73.38
15817;BME280;8009;50.070;8.232;2023-05-11T05:48:59;99792.31;;;13.08;74.03
15817;BME280;8009;50.070;8.232;2023-05-11T05:51:30;99790.53;;;12.88;74.75
15817;BME280;8009;50.070;8.232;2023-05-11T05:53:58;99796.78;;;13.09;73.71
15817;BME280;8009;50.070;8.232;2023-05-11T05:56:27;99800.19;;;13.02;73.95
15817;BME280;8009;50.070;8.232;2023-05-11T05:58:56;99794.44;;;13.05;73.96
15817;BME280;8009;50.070;8.232;2023-05-11T06:01:24;99800.97;;;13.23;73.92
15817;BME280;8009;50.070;8.232;2023-05-11T06:03:53;99794.78;;;13.61;72.23
15817;BME280;8009;50.070;8.232;2023-05-11T06:06:21;99796.53;;;13.22;73.57
15817;BME280;8009;50.070;8.232;2023-05-11T06:08:52;99797.34;;;13.53;73.02
15817;BME280;8009;50.070;8.232;2023-05-11T06:11:20;99800.09;;;13.73;72.70
15817;BME280;8009;50.070;8.232;2023-05-11T06:13:49;99801.81;;;13.83;72.22
15817;BME280;8009;50.070;8.232;2023-05-11T06:16:17;99796.69;;;14.09;71.52
15817;BME280;8009;50.070;8.232;2023-05-11T06:18:45;99797.25;;;13.84;72.34
15817;BME280;8009;50.070;8.232;2023-05-11T06:21:14;99789.66;;;14.07;71.42
15817;BME280;8009;50.070;8.232;2023-05-11T06:23:42;99798.41;;;14.01;71.82
15817;BME280;8009;50.070;8.232;2023-05-11T06:26:13;99800.94;;;13.93;71.94
15817;BME280;8009;50.070;8.232;2023-05-11T06:28:41;99793.97;;;13.90;71.90
15817;BME280;8009;50.070;8.232;2023-05-11T06:31:09;99797.69;;;13.89;71.79
15817;BME280;8009;50.070;8.232;2023-05-11T06:33:38;99795.25;;;13.67;72.79
15817;BME280;8009;50.070;8.232;2023-05-11T06:36:10;99796.97;;;13.97;72.70
15817;BME280;8009;50.070;8.232;2023-05-11T06:38:38;99796.09;;;13.77;72.53
15817;BME280;8009;50.070;8.232;2023-05-11T06:41:07;99800.09;;;13.63;72.70
15817;BME280;8009;50.070;8.232;2023-05-11T06:43:38;99783.53;;;14.05;71.64
15817;BME280;8009;50.070;8.232;2023-05-11T06:46:07;99788.84;;;13.97;71.85
15817;BME280;8009;50.070;8.232;2023-05-11T06:48:40;99792.25;;;14.08;71.00
15817;BME280;8009;50.070;8.232;2023-05-11T06:51:09;99786.38;;;14.23;71.97
15817;BME280;8009;50.070;8.232;2023-05-11T06:53:37;99793.69;;;14.12;72.42
15817;BME280;8009;50.070;8.232;2023-05-11T06:56:06;99794.06;;;14.37;70.12
15817;BME280;8009;50.070;8.232;2023-05-11T06:58:34;99797.94;;;14.44;71.16
15817;BME280;8009;50.070;8.232;2023-05-11T07:01:05;99795.66;;;14.49;70.62
15817;BME280;8009;50.070;8.232;2023-05-11T07:03:34;99798.81;;;14.15;70.77
15817;BME280;8009;50.070;8.232;2023-05-11T07:06:02;99795.69;;;14.20;70.74
15817;BME280;8009;50.070;8.232;2023-05-11T07:08:33;99799.50;;;14.37;70.05
15817;BME280;8009;50.070;8.232;2023-05-11T07:11:01;99801.94;;;14.50;69.15
15817;BME280;8009;50.070;8.232;2023-05-11T07:13:29;99803.81;;;14.49;70.65
15817;BME280;8009;50.070;8.232;2023-05-11T07:15:58;99801.50;;;14.15;70.58
15817;BME280;8009;50.070;8.232;2023-05-11T07:18:29;99802.81;;;14.21;70.53
15817;BME280;8009;50.070;8.232;2023-05-11T07:20:57;99798.81;;;14.15;70.84
15817;BME280;8009;50.070;8.232;2023-05-11T07:23:26;99800.53;;;14.36;70.26
15817;BME280;8009;50.070;8.232;2023-05-11T07:25:54;99801.94;;;14.11;71.14
15817;BME280;8009;50.070;8.232;2023-05-11T07:28:25;99797.06;;;14.34;70.75
15817;BME280;8009;50.070;8.232;2023-05-11T07:30:53;99794.81;;;14.10;70.31
15817;BME280;8009;50.070;8.232;2023-05-11T07:33:21;99798.38;;;14.10;70.78
15817;BME280;8009;50.070;8.232;2023-05-11T07:35:52;99800.81;;;14.33;70.72
15817;BME280;8009;50.070;8.232;2023-05-11T07:38:21;99800.50;;;14.55;69.09
15817;BME280;8009;50.070;8.232;2023-05-11T07:40:49;99805.63;;;14.49;70.27
15817;BME280;8009;50.070;8.232;2023-05-11T07:43:18;99798.94;;;14.62;70.56
15817;BME280;8009;50.070;8.232;2023-05-11T07:45:46;99798.03;;;14.72;69.64
15817;BME280;8009;50.070;8.232;2023-05-11T07:48:14;99798.47;;;14.57;69.46
15817;BME280;8009;50.070;8.232;2023-05-11T07:50:43;99803.94;;;14.48;69.35
15817;BME280;8009;50.070;8.232;2023-05-11T07:53:13;99801.09;;;14.49;68.24
15817;BME280;8009;50.070;8.232;2023-05-11T07:55:42;99802.50;;;14.44;68.95
15817;BME280;8009;50.070;8.232;2023-05-11T07:58:10;99798.38;;;14.39;69.20
15817;BME280;8009;50.070;8.232;2023-05-11T08:00:39;99799.88;;;14.81;67.75
15817;BME280;8009;50.070;8.232;2023-05-11T08:03:10;99795.03;;;14.65;67.64
15817;BME280;8009;50.070;8.232;2023-05-11T08:05:39;99793.53;;;14.90;66.99
15817;BME280;8009;50.070;8.232;2023-05-11T08:08:08;99801.50;;;15.01;67.08
15817;BME280;8009;50.070;8.232;2023-05-11T08:10:39;99802.78;;;14.41;69.98
15817;BME280;8009;50.070;8.232;2023-05-11T08:13:07;99802.44;;;14.82;67.87
15817;BME280;8009;50.070;8.232;2023-05-11T08:15:36;99799.66;;;14.55;69.09
15817;BME280;8009;50.070;8.232;2023-05-11T08:18:04;99800.28;;;14.86;68.37
15817;BME280;8009;50.070;8.232;2023-05-11T08:20:33;99805.31;;;14.81;69.42
15817;BME280;8009;50.070;8.232;2023-05-11T08:23:01;99804.38;;;15.00;68.55
15817;BME280;8009;50.070;8.232;2023-05-11T08:25:30;99809.78;;;15.09;66.55
15817;BME280;8009;50.070;8.232;2023-05-11T08:28:01;99808.53;;;15.04;66.50
15817;BME280;8009;50.070;8.232;2023-05-11T08:30:30;99803.22;;;15.02;67.23
15817;BME280;8009;50.070;8.232;2023-05-11T08:32:58;99808.53;;;14.94;67.32
15817;BME280;8009;50.070;8.232;2023-05-11T08:35:28;99799.94;;;14.99;67.18
15817;BME280;8009;50.070;8.232;2023-05-11T08:37:56;99802.03;;;14.77;67.79
15817;BME280;8009;50.070;8.232;2023-05-11T08:40:26;99808.16;;;14.79;67.40
15817;BME280;8009;50.070;8.232;2023-05-11T08:42:55;99805.53;;;14.97;67.62
15817;BME280;8009;50.070;8.232;2023-05-11T08:45:26;99802.63;;;15.08;67.27
15817;BME280;8009;50.070;8.232;2023-05-11T08:47:56;99808.53;;;14.94;66.49
15817;BME280;8009;50.070;8.232;2023-05-11T08:50:24;99809.84;;;15.27;66.50
15817;BME280;8009;50.070;8.232;2023-05-11T08:52:53;99805.56;;;14.87;67.41
15817;BME280;8009;50.070;8.232;2023-05-11T08:55:24;99802.03;;;15.60;66.81
15817;BME280;8009;50.070;8.232;2023-05-11T08:57:54;99804.63;;;15.62;65.48
15817;BME280;8009;50.070;8.232;2023-05-11T09:00:26;99798.69;;;15.94;64.40
15817;BME280;8009;50.070;8.232;2023-05-11T09:02:56;99807.78;;;15.39;65.13
15817;BME280;8009;50.070;8.232;2023-05-11T09:05:25;99802.00;;;15.15;67.40
15817;BME280;8009;50.070;8.232;2023-05-11T09:07:59;99806.28;;;15.27;66.88
15817;BME280;8009;50.070;8.232;2023-05-11T09:10:28;99805.19;;;15.10;66.89
15817;BME280;8009;50.070;8.232;2023-05-11T09:12:56;99813.13;;;15.49;67.30
15817;BME280;8009;50.070;8.232;2023-05-11T09:15:27;99806.00;;;15.48;66.00
15817;BME280;8009;50.070;8.232;2023-05-11T09:17:56;99809.47;;;15.40;65.31
15817;BME280;8009;50.070;8.232;2023-05-11T09:20:27;99811.44;;;15.48;66.23
15817;BME280;8009;50.070;8.232;2023-05-11T09:22:56;99794.72;;;15.70;64.33
15817;BME280;8009;50.070;8.232;2023-05-11T09:25:26;99798.22;;;15.80;63.31
15817;BME280;8009;50.070;8.232;2023-05-11T09:27:56;99794.75;;;15.88;64.39
15817;BME280;8009;50.070;8.232;2023-05-11T09:30:28;99790.97;;;15.71;66.02
15817;BME280;8009;50.070;8.232;2023-05-11T09:32:58;99795.03;;;15.67;65.36
15817;BME280;8009;50.070;8.232;2023-05-11T09:35:28;99795.75;;;15.59;64.68
15817;BME280;8009;50.070;8.232;2023-05-11T09:38:02;99789.69;;;16.11;63.57
15817;BME280;8009;50.070;8.232;2023-05-11T09:40:32;99797.66;;;15.95;63.46
15817;BME280;8009;50.070;8.232;2023-05-11T09:43:01;99805.84;;;16.13;63.43
15817;BME280;8009;50.070;8.232;2023-05-11T09:45:43;99798.06;;;16.18;62.47
15817;BME280;8009;50.070;8.232;2023-05-11T09:48:25;99794.66;;;16.16;62.92
15817;BME280;8009;50.070;8.232;2023-05-11T09:51:03;99791.53;;;15.93;63.05
15817;BME280;8009;50.070;8.232;2023-05-11T09:53:37;99798.53;;;16.31;61.49
15817;BME280;8009;50.070;8.232;2023-05-11T09:56:07;99798.31;;;16.50;60.97
15817;BME280;8009;50.070;8.232;2023-05-11T09:58:46;99787.16;;;16.62;61.24
15817;BME280;8009;50.070;8.232;2023-05-11T10:01:26;99790.59;;;16.64;61.24
15817;BME280;8009;50.070;8.232;2023-05-11T10:03:57;99794.19;;;16.90;61.11
15817;BME280;8009;50.070;8.232;2023-05-11T10:06:25;99789.31;;;16.50;61.24
15817;BME280;8009;50.070;8.232;2023-05-11T10:08:54;99790.41;;;16.39;60.12
15817;BME280;8009;50.070;8.232;2023-05-11T10:11:23;99792.78;;;16.86;61.31
15817;BME280;8009;50.070;8.232;2023-05-11T10:13:51;99791.75;;;16.61;59.72
15817;BME280;8009;50.070;8.232;2023-05-11T10:16:23;99793.31;;;16.20;60.04
15817;BME280;8009;50.070;8.232;2023-05-11T10:18:51;99783.28;;;16.64;59.72
15817;BME280;8009;50.070;8.232;2023-05-11T10:21:21;99787.25;;;16.52;59.12
15817;BME280;8009;50.070;8.232;2023-05-11T10:23:49;99785.50;;;16.69;59.99
15817;BME280;8009;50.070;8.232;2023-05-11T10:26:18;99786.66;;;16.84;60.35
15817;BME280;8009;50.070;8.232;2023-05-11T10:28:46;99780.50;;;16.82;60.41
15817;BME280;8009;50.070;8.232;2023-05-11T10:31:16;99779.56;;;16.47;59.18
15817;BME280;8009;50.070;8.232;2023-05-11T10:33:51;99784.66;;;16.68;59.94
15817;BME280;8009;50.070;8.232;2023-05-11T10:36:22;99779.28;;;16.32;60.02
15817;BME280;8009;50.070;8.232;2023-05-11T10:38:52;99774.34;;;16.54;59.95
15817;BME280;8009;50.070;8.232;2023-05-11T10:41:32;99778.47;;;16.40;61.31
15817;BME280;8009;50.070;8.232;2023-05-11T10:47:17;99779.97;;;16.52;59.57
15817;BME280;8009;50.070;8.232;2023-05-11T10:50:13;99776.16;;;16.45;59.18
15817;BME280;8009;50.070;8.232;2023-05-11T10:55:54;99779.63;;;16.12;61.10
15817;BME280;8009;50.070;8.232;2023-05-11T10:58:36;99769.94;;;16.79;61.27
15817;BME280;8009;50.070;8.232;2023-05-11T11:01:30;99773.75;;;16.68;59.04
15817;BME280;8009;50.070;8.232;2023-05-11T11:04:02;99773.56;;;16.44;62.48
15817;BME280;8009;50.070;8.232;2023-05-11T11:06:36;99763.78;;;16.77;60.36
15817;BME280;8009;50.070;8.232;2023-05-11T11:09:07;99767.47;;;16.68;59.22
15817;BME280;8009;50.070;8.232;2023-05-11T11:11:39;99774.56;;;16.61;59.94
15817;BME280;8009;50.070;8.232;2023-05-11T11:14:10;99767.53;;;16.32;59.96
15817;BME280;8009;50.070;8.232;2023-05-11T11:19:42;99766.22;;;16.62;60.88
15817;BME280;8009;50.070;8.232;2023-05-11T11:24:51;99765.81;;;16.31;60.36
15817;BME280;8009;50.070;8.232;2023-05-11T11:27:55;99761.81;;;16.43;60.52
15817;BME280;8009;50.070;8.232;2023-05-11T11:35:53;99758.41;;;16.41;60.28
15817;BME280;8009;50.070;8.232;2023-05-11T11:38:32;99768.06;;;16.79;60.99
15817;BME280;8009;50.070;8.232;2023-05-11T11:41:07;99763.00;;;16.67;59.39
15817;BME280;8009;50.070;8.232;2023-05-11T11:43:42;99752.03;;;16.76;59.57
15817;BME280;8009;50.070;8.232;2023-05-11T11:46:25;99761.53;;;16.28;60.71
15817;BME280;8009;50.070;8.232;2023-05-11T11:49:08;99753.38;;;16.28;60.21
15817;BME280;8009;50.070;8.232;2023-05-11T11:51:36;99756.69;;;16.66;61.04
15817;BME280;8009;50.070;8.232;2023-05-11T11:54:05;99763.38;;;16.46;60.40
15817;BME280;8009;50.070;8.232;2023-05-11T12:33:09;99754.34;;;16.71;66.24
15817;BME280;8009;50.070;8.232;2023-05-11T12:35:42;99744.69;;;16.77;66.24
15817;BME280;8009;50.070;8.232;2023-05-11T12:38:11;99750.66;;;16.54;68.18
15817;BME280;8009;50.070;8.232;2023-05-11T12:40:46;99746.19;;;16.71;66.98
15817;BME280;8009;50.070;8.232;2023-05-11T12:43:16;99745.44;;;16.61;67.80
15817;BME280;8009;50.070;8.232;2023-05-11T12:45:45;99743.91;;;16.67;67.65
15817;BME280;8009;50.070;8.232;2023-05-11T13:01:09;99735.97;;;16.73;66.30
15817;BME280;8009;50.070;8.232;2023-05-11T13:08:44;99739.25;;;16.77;65.90
15817;BME280;8009;50.070;8.232;2023-05-11T13:11:17;99731.00;;;16.69;65.70
15817;BME280;8009;50.070;8.232;2023-05-11T13:13:47;99728.81;;;16.72;67.17
15817;BME280;8009;50.070;8.232;2023-05-11T13:19:06;99730.63;;;16.64;67.93
15817;BME280;8009;50.070;8.232;2023-05-11T13:21:34;99726.81;;;16.83;67.48
15817;BME280;8009;50.070;8.232;2023-05-11T13:26:38;99729.75;;;16.89;66.91
15817;BME280;8009;50.070;8.232;2023-05-11T13:29:06;99730.78;;;16.88;67.14
15817;BME280;8009;50.070;8.232;2023-05-11T13:31:41;99733.19;;;16.91;66.67
15817;BME280;8009;50.070;8.232;2023-05-11T13:34:12;99730.88;;;16.78;67.95
15817;BME280;8009;50.070;8.232;2023-05-11T13:36:41;99728.03;;;16.80;67.77
15817;BME280;8009;50.070;8.232;2023-05-11T13:39:11;99732.81;;;16.86;67.93
15817;BME280;8009;50.070;8.232;2023-05-11T13:41:39;99726.31;;;16.79;68.22
15817;BME280;8009;50.070;8.232;2023-05-11T13:44:08;99729.19;;;16.77;67.99
15817;BME280;8009;50.070;8.232;2023-05-11T13:46:37;99722.34;;;16.73;68.67
15817;BME280;8009;50.070;8.232;2023-05-11T13:49:06;99719.91;;;16.70;69.78
15817;BME280;8009;50.070;8.232;2023-05-11T13:51:37;99722.09;;;16.67;69.26
15817;BME280;8009;50.070;8.232;2023-05-11T13:54:05;99723.47;;;16.11;70.92
15817;BME280;8009;50.070;8.232;2023-05-11T13:56:33;99717.91;;;16.20;70.52
15817;BME280;8009;50.070;8.232;2023-05-11T13:59:02;99713.44;;;16.37;68.75
15817;BME280;8009;50.070;8.232;2023-05-11T14:01:30;99727.47;;;16.50;69.52
15817;BME280;8009;50.070;8.232;2023-05-11T14:03:58;99717.41;;;16.51;70.15
15817;BME280;8009;50.070;8.232;2023-05-11T14:06:27;99723.69;;;16.43;72.02
15817;BME280;8009;50.070;8.232;2023-05-11T14:08:58;99714.56;;;16.26;72.78
15817;BME280;8009;50.070;8.232;2023-05-11T14:11:27;99711.88;;;16.35;71.50
15817;BME280;8009;50.070;8.232;2023-05-11T14:13:55;99706.84;;;16.48;71.65
15817;BME280;8009;50.070;8.232;2023-05-11T14:16:23;99710.44;;;16.22;74.05
15817;BME280;8009;50.070;8.232;2023-05-11T14:18:52;99710.31;;;16.32;71.38
15817;BME280;8009;50.070;8.232;2023-05-11T14:21:20;99714.38;;;16.28;74.28
15817;BME280;8009;50.070;8.232;2023-05-11T14:23:49;99705.44;;;16.18;73.65
15817;BME280;8009;50.070;8.232;2023-05-11T14:26:20;99717.47;;;16.07;74.66
15817;BME280;8009;50.070;8.232;2023-05-11T14:28:49;99705.53;;;16.26;74.08
15817;BME280;8009;50.070;8.232;2023-05-11T14:31:17;99715.19;;;16.20;74.28
15817;BME280;8009;50.070;8.232;2023-05-11T14:33:46;99706.19;;;16.28;73.91
15817;BME280;8009;50.070;8.232;2023-05-11T14:36:14;99717.22;;;16.18;75.15
15817;BME280;8009;50.070;8.232;2023-05-11T14:38:42;99710.03;;;16.17;74.38
15817;BME280;8009;50.070;8.232;2023-05-11T14:41:11;99709.28;;;16.33;75.10
15817;BME280;8009;50.070;8.232;2023-05-11T14:43:42;99705.97;;;16.47;74.65
15817;BME280;8009;50.070;8.232;2023-05-11T14:46:10;99704.59;;;16.43;73.97
15817;BME280;8009;50.070;8.232;2023-05-11T14:48:39;99710.56;;;16.21;74.25
15817;BME280;8009;50.070;8.232;2023-05-11T14:51:08;99709.63;;;16.04;75.02
15817;BME280;8009;50.070;8.232;2023-05-11T14:53:36;99709.66;;;16.12;74.61
15817;BME280;8009;50.070;8.232;2023-05-11T14:56:05;99705.66;;;16.24;75.99
15817;BME280;8009;50.070;8.232;2023-05-11T14:58:33;99699.19;;;15.99;74.68
15817;BME280;8009;50.070;8.232;2023-05-11T15:01:04;99711.25;;;15.97;76.86
15817;BME280;8009;50.070;8.232;2023-05-11T15:03:33;99712.44;;;15.13;81.01
15817;BME280;8009;50.070;8.232;2023-05-11T15:06:02;99713.84;;;15.17;80.37
15817;BME280;8009;50.070;8.232;2023-05-11T15:08:31;99720.91;;;14.82;81.40
15817;BME280;8009;50.070;8.232;2023-05-11T15:10:59;99723.66;;;15.28;80.19
15817;BME280;8009;50.070;8.232;2023-05-11T15:13:27;99715.34;;;15.47;79.04
15817;BME280;8009;50.070;8.232;2023-05-11T15:15:55;99718.50;;;15.25;80.18
15817;BME280;8009;50.070;8.232;2023-05-11T15:18:26;99718.25;;;15.46;79.73
15817;BME280;8009;50.070;8.232;2023-05-11T15:20:55;99725.88;;;15.15;82.27
15817;BME280;8009;50.070;8.232;2023-05-11T15:23:23;99725.09;;;14.77;84.49
15817;BME280;8009;50.070;8.232;2023-05-11T15:25:51;99719.63;;;15.32;82.42
15817;BME280;8009;50.070;8.232;2023-05-11T15:28:22;99723.59;;;15.55;81.25
15817;BME280;8009;50.070;8.232;2023-05-11T15:30:51;99723.34;;;15.49;81.91
15817;BME280;8009;50.070;8.232;2023-05-11T15:33:19;99730.13;;;15.45;82.11
15817;BME280;8009;50.070;8.232;2023-05-11T15:35:50;99721.44;;;15.59;80.06
15817;BME280;8009;50.070;8.232;2023-05-11T15:38:19;99722.81;;;15.63;81.09
15817;BME280;8009;50.070;8.232;2023-05-11T15:40:47;99729.25;;;15.44;82.27
15817;BME280;8009;50.070;8.232;2023-05-11T15:43:15;99728.25;;;15.63;80.12
15817;BME280;8009;50.070;8.232;2023-05-11T15:45:44;99733.97;;;15.70;81.11
15817;BME280;8009;50.070;8.232;2023-05-11T15:48:14;99721.72;;;15.83;81.46
15817;BME280;8009;50.070;8.232;2023-05-11T15:50:42;99723.69;;;15.46;82.80
15817;BME280;8009;50.070;8.232;2023-05-11T15:53:14;99735.78;;;15.33;82.82
15817;BME280;8009;50.070;8.232;2023-05-11T15:55:42;99726.69;;;15.60;82.12
15817;BME280;8009;50.070;8.232;2023-05-11T15:58:16;99731.75;;;15.55;81.65
15817;BME280;8009;50.070;8.232;2023-05-11T16:00:44;99729.22;;;15.54;80.87
15817;BME280;8009;50.070;8.232;2023-05-11T16:03:21;99726.53;;;15.26;83.01
15817;BME280;8009;50.070;8.232;2023-05-11T16:05:56;99731.19;;;14.89;86.18
15817;BME280;8009;50.070;8.232;2023-05-11T16:08:27;99726.16;;;15.39;82.62
15817;BME280;8009;50.070;8.232;2023-05-11T16:10:55;99737.38;;;15.08;79.37
15817;BME280;8009;50.070;8.232;2023-05-11T16:13:23;99725.84;;;15.42;76.74
15817;BME280;8009;50.070;8.232;2023-05-11T16:15:52;99720.63;;;15.49;79.27
15817;BME280;8009;50.070;8.232;2023-05-11T16:18:20;99723.91;;;15.34;80.37
15817;BME280;8009;50.070;8.232;2023-05-11T16:20:48;99713.72;;;15.36;80.44
15817;BME280;8009;50.070;8.232;2023-05-11T16:23:17;99716.28;;;15.56;80.26
15817;BME280;8009;50.070;8.232;2023-05-11T16:25:48;99718.53;;;15.60;80.47
15817;BME280;8009;50.070;8.232;2023-05-11T16:28:16;99721.03;;;15.36;81.89
15817;BME280;8009;50.070;8.232;2023-05-11T16:30:44;99720.13;;;15.18;83.02
15817;BME280;8009;50.070;8.232;2023-05-11T16:33:13;99717.56;;;15.16;81.24
15817;BME280;8009;50.070;8.232;2023-05-11T16:35:41;99723.59;;;14.92;85.14
15817;BME280;8009;50.070;8.232;2023-05-11T16:38:14;99716.75;;;15.06;84.52
15817;BME280;8009;50.070;8.232;2023-05-11T16:40:43;99715.06;;;15.05;82.50
15817;BME280;8009;50.070;8.232;2023-05-11T16:43:15;99714.81;;;14.98;82.72
15817;BME280;8009;50.070;8.232;2023-05-11T16:45:44;99721.16;;;14.89;83.27
15817;BME280;8009;50.070;8.232;2023-05-11T16:48:12;99721.63;;;14.84;82.16
15817;BME280;8009;50.070;8.232;2023-05-11T16:50:40;99719.31;;;14.80;82.19
15817;BME280;8009;50.070;8.232;2023-05-11T16:53:09;99710.47;;;14.78;82.33
15817;BME280;8009;50.070;8.232;2023-05-11T16:55:37;99708.25;;;14.63;84.08
15817;BME280;8009;50.070;8.232;2023-05-11T16:58:06;99716.50;;;14.72;82.86
15817;BME280;8009;50.070;8.232;2023-05-11T17:00:37;99707.72;;;14.41;84.15
15817;BME280;8009;50.070;8.232;2023-05-11T17:03:05;99709.28;;;14.43;82.11
15817;BME280;8009;50.070;8.232;2023-05-11T17:05:33;99714.00;;;14.41;84.72
15817;BME280;8009;50.070;8.232;2023-05-11T17:08:02;99712.84;;;14.53;84.51
15817;BME280;8009;50.070;8.232;2023-05-11T17:10:30;99719.47;;;14.31;82.73
15817;BME280;8009;50.070;8.232;2023-05-11T17:13:00;99718.38;;;14.71;82.15
15817;BME280;8009;50.070;8.232;2023-05-11T17:15:28;99713.44;;;14.47;83.23
15817;BME280;8009;50.070;8.232;2023-05-11T17:17:59;99715.56;;;14.53;82.45
15817;BME280;8009;50.070;8.232;2023-05-11T17:20:28;99711.91;;;14.72;81.51
15817;BME280;8009;50.070;8.232;2023-05-11T17:22:56;99720.91;;;14.73;80.41
15817;BME280;8009;50.070;8.232;2023-05-11T17:25:25;99717.69;;;14.59;78.91
15817;BME280;8009;50.070;8.232;2023-05-11T17:27:54;99720.72;;;14.47;82.09
15817;BME280;8009;50.070;8.232;2023-05-11T17:30:22;99720.16;;;14.33;82.18
15817;BME280;8009;50.070;8.232;2023-05-11T17:32:51;99719.84;;;14.66;82.17
15817;BME280;8009;50.070;8.232;2023-05-11T17:35:22;99722.19;;;14.31;84.02
15817;BME280;8009;50.070;8.232;2023-05-11T17:37:50;99720.03;;;14.35;83.40
15817;BME280;8009;50.070;8.232;2023-05-11T17:40:18;99719.50;;;14.69;82.68
15817;BME280;8009;50.070;8.232;2023-05-11T17:42:47;99731.94;;;14.81;81.18
15817;BME280;8009;50.070;8.232;2023-05-11T17:45:16;99725.47;;;14.82;81.89
15817;BME280;8009;50.070;8.232;2023-05-11T17:47:45;99716.44;;;14.44;82.48
15817;BME280;8009;50.070;8.232;2023-05-11T17:50:17;99721.72;;;14.55;83.35
15817;BME280;8009;50.070;8.232;2023-05-11T17:52:48;99723.72;;;14.53;82.15
15817;BME280;8009;50.070;8.232;2023-05-11T17:55:16;99724.16;;;14.58;83.59
15817;BME280;8009;50.070;8.232;2023-05-11T17:57:50;99723.88;;;14.52;80.62
15817;BME280;8009;50.070;8.232;2023-05-11T18:00:19;99727.88;;;14.38;81.32
15817;BME280;8009;50.070;8.232;2023-05-11T18:02:47;99718.44;;;14.89;78.69
15817;BME280;8009;50.070;8.232;2023-05-11T18:05:16;99735.06;;;14.76;80.50
15817;BME280;8009;50.070;8.232;2023-05-11T18:07:48;99731.56;;;14.56;80.82
15817;BME280;8009;50.070;8.232;2023-05-11T18:10:17;99727.88;;;14.48;81.45
15817;BME280;8009;50.070;8.232;2023-05-11T18:12:45;99731.28;;;14.59;80.80
15817;BME280;8009;50.070;8.232;2023-05-11T18:18:37;99736.72;;;14.59;81.13
15817;BME280;8009;50.070;8.232;2023-05-11T18:21:28;99739.47;;;14.40;83.15
15817;BME280;8009;50.070;8.232;2023-05-11T18:24:00;99743.47;;;14.36;82.21
15817;BME280;8009;50.070;8.232;2023-05-11T18:26:29;99749.03;;;14.34;83.24
15817;BME280;8009;50.070;8.232;2023-05-11T18:28:58;99736.03;;;14.38;84.02
15817;BME280;8009;50.070;8.232;2023-05-11T18:31:27;99749.06;;;14.15;84.30
15817;BME280;8009;50.070;8.232;2023-05-11T18:33:56;99745.06;;;14.19;84.07
15817;BME280;8009;50.070;8.232;2023-05-11T18:36:47;99742.59;;;14.45;82.97
15817;BME280;8009;50.070;8.232;2023-05-11T18:39:18;99746.94;;;14.19;84.43
15817;BME280;8009;50.070;8.232;2023-05-11T18:41:46;99746.06;;;14.28;83.00
15817;BME280;8009;50.070;8.232;2023-05-11T18:44:14;99742.97;;;13.94;85.14